createdAt,value
2018-07-21T00:03:16.979Z,59.05
2018-07-21T00:06:41.627Z,59.43
2018-07-21T00:10:06.793Z,60.84
2018-07-21T00:13:31.589Z,62.19
2018-07-21T00:16:56.235Z,62.32
2018-07-21T00:20:20.936Z,64.26
2018-07-21T00:23:45.626Z,64.96
2018-07-21T00:27:10.326Z,64.95
2018-07-21T00:30:35.011Z,65.70
2018-07-21T00:33:59.762Z,66.56
2018-07-21T00:37:24.365Z,66.07
2018-07-21T00:40:48.994Z,66.71
2018-07-21T00:44:13.603Z,66.75
2018-07-21T00:47:38.280Z,67.54
2018-07-21T00:51:02.992Z,67.07
2018-07-21T00:54:27.687Z,65.48
2018-07-21T00:57:52.382Z,62.88
2018-07-21T01:01:17.152Z,64.43
2018-07-21T01:04:41.877Z,64.15
2018-07-21T01:08:06.264Z,61.56
2018-07-21T01:11:31.002Z,65.74
2018-07-21T01:14:55.665Z,62.37
2018-07-21T01:18:20.362Z,64.33
2018-07-21T01:21:45.051Z,64.13
2018-07-21T01:25:09.655Z,64.42
2018-07-21T01:28:34.313Z,59.86
2018-07-21T01:31:59.131Z,63.10
2018-07-21T01:35:23.431Z,62.07
2018-07-21T01:38:48.269Z,60.35
2018-07-21T01:42:12.947Z,60.51
2018-07-21T01:45:37.625Z,62.30
2018-07-21T01:49:02.249Z,64.69
2018-07-21T01:52:26.911Z,59.89
2018-07-21T01:55:51.513Z,61.65
2018-07-21T01:59:16.119Z,63.86
2018-07-21T02:02:40.771Z,64.77
2018-07-21T02:06:05.436Z,65.23
2018-07-21T02:09:30.090Z,59.72
2018-07-21T02:12:54.715Z,64.70
2018-07-21T02:16:19.375Z,62.35
2018-07-21T02:19:43.904Z,63.26
2018-07-21T02:23:08.537Z,63.16
2018-07-21T02:26:34.191Z,64.29
2018-07-21T02:29:58.837Z,63.85
2018-07-21T02:33:23.463Z,64.88
2018-07-21T02:36:48.077Z,64.35
2018-07-21T02:41:41.827Z,62.99
2018-07-21T02:45:06.691Z,62.08
2018-07-21T02:48:31.331Z,63.00
2018-07-21T02:51:55.988Z,65.53
2018-07-21T02:55:20.757Z,65.07
2018-07-21T02:58:45.400Z,64.34
2018-07-21T03:02:10.082Z,63.68
2018-07-21T03:05:34.737Z,64.54
2018-07-21T03:08:59.429Z,64.85
2018-07-21T03:12:24.094Z,64.84
2018-07-21T03:15:48.822Z,65.15
2018-07-21T03:19:13.496Z,63.84
2018-07-21T03:22:38.125Z,65.30
2018-07-21T03:26:02.843Z,65.69
2018-07-21T03:29:27.589Z,66.00
2018-07-21T03:32:52.244Z,67.09
2018-07-21T03:36:16.869Z,66.96
2018-07-21T03:39:41.523Z,67.25
2018-07-21T03:43:06.328Z,70.50
2018-07-21T03:46:31.051Z,68.37
2018-07-21T03:49:55.769Z,67.39
2018-07-21T03:53:20.484Z,65.83
2018-07-21T03:56:45.174Z,68.54
2018-07-21T04:00:09.894Z,69.93
2018-07-21T04:03:34.568Z,67.60
2018-07-21T04:06:59.218Z,64.00
2018-07-21T04:10:23.906Z,63.32
2018-07-21T04:13:48.587Z,63.05
2018-07-21T04:17:17.261Z,64.06
2018-07-21T04:20:41.943Z,64.51
2018-07-21T04:24:06.381Z,66.27
2018-07-21T04:27:31.079Z,68.42
2018-07-21T04:30:55.777Z,68.92
2018-07-21T04:34:20.418Z,70.15
2018-07-21T04:37:45.081Z,70.52
2018-07-21T04:41:09.725Z,72.90
2018-07-21T04:44:34.605Z,67.07
2018-07-21T04:47:59.228Z,70.81
2018-07-21T04:51:23.864Z,71.31
2018-07-21T04:54:48.525Z,70.94
2018-07-21T04:58:13.169Z,71.43
2018-07-21T05:01:37.826Z,68.02
2018-07-21T05:05:02.476Z,69.32
2018-07-21T05:08:27.153Z,68.94
2018-07-21T05:11:51.850Z,66.52
2018-07-21T05:15:16.529Z,69.54
2018-07-21T05:18:41.175Z,70.54
2018-07-21T05:22:06.157Z,70.18
2018-07-21T05:25:30.513Z,70.49
2018-07-21T05:28:55.234Z,72.24
2018-07-21T05:32:20.021Z,72.02
2018-07-21T05:35:44.825Z,71.06
2018-07-21T05:39:10.677Z,72.08
2018-07-21T05:42:35.393Z,70.42
2018-07-21T05:46:00.039Z,67.26
2018-07-21T05:57:23.915Z,71.95
2018-07-21T06:00:48.762Z,72.98
2018-07-21T06:04:13.619Z,72.48
2018-07-21T06:07:38.511Z,72.03
2018-07-21T06:11:03.295Z,71.85
2018-07-21T06:14:28.019Z,69.93
2018-07-21T06:17:52.659Z,70.88
2018-07-21T06:21:17.381Z,71.23
2018-07-21T06:24:42.142Z,70.77
2018-07-21T06:28:06.684Z,69.12
2018-07-21T06:31:31.357Z,68.16
2018-07-21T06:34:56.190Z,66.00
2018-07-21T06:38:20.903Z,64.77
2018-07-21T06:41:45.755Z,63.53
2018-07-21T06:45:10.508Z,65.63
2018-07-21T06:48:35.236Z,67.14
2018-07-21T06:52:00.120Z,62.82
2018-07-21T06:55:25.015Z,65.35
2018-07-21T06:58:49.794Z,66.48
2018-07-21T07:02:14.569Z,66.99
2018-07-21T07:05:41.025Z,68.81
2018-07-21T07:09:07.675Z,68.52
2018-07-21T07:12:32.415Z,67.23
2018-07-21T07:15:57.118Z,69.65
2018-07-21T07:19:21.858Z,68.10
2018-07-21T07:22:46.168Z,69.14
2018-07-21T07:26:10.853Z,69.27
2018-07-21T07:29:35.742Z,70.77
2018-07-21T07:33:00.483Z,69.69
2018-07-21T07:36:25.139Z,70.87
2018-07-21T07:39:49.905Z,71.34
2018-07-21T07:43:14.740Z,70.29
2018-07-21T07:46:39.511Z,70.54
2018-07-21T07:50:04.513Z,71.20
2018-07-21T07:53:29.212Z,70.44
2018-07-21T07:56:54.038Z,71.42
2018-07-21T08:00:18.786Z,70.41
2018-07-21T08:03:43.477Z,70.71
2018-07-21T08:07:08.117Z,71.36
2018-07-21T08:10:32.850Z,71.91
2018-07-21T08:13:57.565Z,71.76
2018-07-21T08:17:22.298Z,71.34
2018-07-21T08:20:47.038Z,71.57
2018-07-21T08:24:12.716Z,70.24
2018-07-21T08:27:37.019Z,70.35
2018-07-21T08:31:01.697Z,68.03
2018-07-21T08:34:26.399Z,68.22
2018-07-21T08:37:51.037Z,69.05
2018-07-21T08:41:15.798Z,70.33
2018-07-21T08:44:40.492Z,67.35
2018-07-21T08:48:05.251Z,69.49
2018-07-21T08:51:29.878Z,67.76
2018-07-21T08:54:54.584Z,68.71
2018-07-21T08:58:19.256Z,66.04
2018-07-21T09:01:43.941Z,68.60
2018-07-21T09:05:08.737Z,66.44
2018-07-21T09:08:33.480Z,67.21
2018-07-21T09:11:58.340Z,68.27
2018-07-21T09:15:23.000Z,63.91
2018-07-21T09:18:47.362Z,65.94
2018-07-21T09:22:12.090Z,64.81
2018-07-21T09:25:36.720Z,65.38
2018-07-21T09:29:01.385Z,65.76
2018-07-21T09:32:26.081Z,65.77
2018-07-21T09:35:50.797Z,63.43
2018-07-21T09:39:15.456Z,64.95
2018-07-21T09:42:40.126Z,64.15
2018-07-21T09:46:05.256Z,63.73
2018-07-21T09:49:29.997Z,63.69
2018-07-21T09:52:54.659Z,64.71
2018-07-21T09:56:19.323Z,64.34
2018-07-21T09:59:44.069Z,64.76
2018-07-21T10:03:08.721Z,65.64
2018-07-21T10:06:33.051Z,65.71
2018-07-21T10:09:57.775Z,65.34
2018-07-21T10:13:22.502Z,66.43
2018-07-21T10:16:47.164Z,65.47
2018-07-21T10:20:11.870Z,66.33
2018-07-21T10:23:36.589Z,65.88
2018-07-21T10:27:06.416Z,64.80
2018-07-21T10:30:31.105Z,64.94
2018-07-21T10:33:55.783Z,66.36
2018-07-21T10:37:20.114Z,64.46
2018-07-21T10:40:44.840Z,66.23
2018-07-21T10:44:09.175Z,66.37
2018-07-21T10:47:33.793Z,65.26
2018-07-21T10:50:58.189Z,66.70
2018-07-21T10:54:22.568Z,65.41
2018-07-21T10:57:47.341Z,65.17
2018-07-21T11:01:12.014Z,64.43
2018-07-21T11:04:36.760Z,62.95
2018-07-21T11:08:01.531Z,62.81
2018-07-21T11:11:26.148Z,61.60
2018-07-21T11:14:50.783Z,63.71
2018-07-21T11:18:15.513Z,63.78
2018-07-21T11:21:40.181Z,64.78
2018-07-21T11:25:04.976Z,61.85
2018-07-21T11:28:29.770Z,61.09
2018-07-21T11:31:54.423Z,61.52
2018-07-21T11:35:19.186Z,61.02
2018-07-21T11:38:43.840Z,60.08
2018-07-21T11:42:08.526Z,59.97
2018-07-21T11:45:33.127Z,61.56
2018-07-21T11:48:57.768Z,62.12
2018-07-21T11:52:22.470Z,61.55
2018-07-21T11:55:47.215Z,60.62
2018-07-21T11:59:11.899Z,60.71
2018-07-21T12:02:36.560Z,60.61
2018-07-21T12:06:01.277Z,60.95
2018-07-21T12:09:26.106Z,59.93
2018-07-21T12:12:50.766Z,59.68
2018-07-21T12:16:15.399Z,55.49
2018-07-21T12:19:40.107Z,56.29
2018-07-21T12:23:04.790Z,57.61
2018-07-21T12:26:29.629Z,58.00
2018-07-21T12:29:53.950Z,56.89
2018-07-21T12:33:18.590Z,55.65
2018-07-21T12:36:43.285Z,57.06
2018-07-21T12:40:08.007Z,56.05
2018-07-21T12:43:32.642Z,57.02
2018-07-21T12:46:57.312Z,55.94
2018-07-21T12:50:21.935Z,57.01
2018-07-21T12:53:46.262Z,54.95
2018-07-21T12:57:10.935Z,52.95
2018-07-21T13:00:35.580Z,53.18
2018-07-21T13:04:00.230Z,54.13
2018-07-21T13:07:24.857Z,54.78
2018-07-21T13:10:49.537Z,56.45
2018-07-21T13:14:14.241Z,54.86
2018-07-21T13:17:38.923Z,53.95
2018-07-21T13:21:03.633Z,54.92
2018-07-21T13:24:28.233Z,54.01
2018-07-21T13:27:52.886Z,55.07
2018-07-21T13:31:17.587Z,53.60
2018-07-21T13:34:42.292Z,53.36
2018-07-21T13:38:06.916Z,53.95
2018-07-21T13:41:31.549Z,57.36
2018-07-21T13:44:56.232Z,57.66
2018-07-21T13:48:20.848Z,59.23
2018-07-21T13:51:45.559Z,59.45
2018-07-21T13:55:09.904Z,61.08
2018-07-21T13:58:34.548Z,62.96
2018-07-21T14:01:59.246Z,63.04
2018-07-21T14:05:23.909Z,60.79
2018-07-21T14:08:48.535Z,63.73
2018-07-21T14:12:12.817Z,63.29
2018-07-21T14:15:37.987Z,63.85
2018-07-21T14:19:02.630Z,64.84
2018-07-21T14:22:27.352Z,65.45
2018-07-21T14:25:52.022Z,64.77
2018-07-21T14:29:16.653Z,64.73
2018-07-21T14:32:41.321Z,65.12
2018-07-21T14:36:06.559Z,65.73
2018-07-21T14:39:31.137Z,65.71
2018-07-21T14:42:55.828Z,65.69
2018-07-21T14:46:20.484Z,66.08
2018-07-21T14:49:45.216Z,66.48
2018-07-21T14:53:09.907Z,66.86
2018-07-21T14:56:34.570Z,66.85
2018-07-21T14:59:59.254Z,65.70
2018-07-21T15:03:23.878Z,66.67
2018-07-21T15:06:48.511Z,64.71
2018-07-21T15:10:13.183Z,65.82
2018-07-21T15:13:37.898Z,66.58
2018-07-21T15:17:02.545Z,65.81
2018-07-21T15:20:27.178Z,65.55
2018-07-21T15:23:51.811Z,64.24
2018-07-21T15:27:16.711Z,66.62
2018-07-21T15:30:41.355Z,66.65
2018-07-21T15:34:06.071Z,66.35
2018-07-21T15:37:30.693Z,62.92
2018-07-21T15:40:55.376Z,64.51
2018-07-21T15:44:20.058Z,62.71
2018-07-21T15:47:44.811Z,61.62
2018-07-21T15:51:09.640Z,62.86
2018-07-21T15:54:34.307Z,62.22
2018-07-21T15:57:59.000Z,62.32
2018-07-21T16:01:23.765Z,60.44
2018-07-21T16:04:48.482Z,63.55
2018-07-21T16:08:13.194Z,63.75
2018-07-21T16:11:38.039Z,66.39
2018-07-21T16:15:03.866Z,62.00
2018-07-21T16:18:27.546Z,63.86
2018-07-21T16:21:52.240Z,66.52
2018-07-21T16:25:16.913Z,65.46
2018-07-21T16:28:42.582Z,65.44
2018-07-21T16:32:07.430Z,66.06
2018-07-21T16:35:32.092Z,66.29
2018-07-21T16:38:56.760Z,67.07
2018-07-21T16:42:21.382Z,64.64
2018-07-21T16:45:46.005Z,64.28
2018-07-21T16:49:10.759Z,65.68
2018-07-21T16:52:35.619Z,66.05
2018-07-21T16:56:00.312Z,65.00
2018-07-21T16:59:25.032Z,66.43
2018-07-21T17:02:49.678Z,64.77
2018-07-21T17:06:14.280Z,66.89
2018-07-21T17:09:38.907Z,65.49
2018-07-21T17:13:03.644Z,66.69
2018-07-21T17:16:28.261Z,66.54
2018-07-21T17:19:52.596Z,65.82
2018-07-21T17:23:17.203Z,66.97
2018-07-21T17:26:41.860Z,65.31
2018-07-21T17:30:06.730Z,65.93
2018-07-21T17:33:31.432Z,66.21
2018-07-21T17:36:56.089Z,64.57
2018-07-21T17:40:20.779Z,66.01
2018-07-21T17:43:45.399Z,64.25
2018-07-21T17:47:10.065Z,63.20
2018-07-21T17:50:34.718Z,65.24
2018-07-21T17:53:59.397Z,64.21
2018-07-21T17:57:24.046Z,64.42
2018-07-21T18:00:48.687Z,63.77
2018-07-21T18:04:13.331Z,63.35
2018-07-21T18:07:37.998Z,64.74
2018-07-21T18:11:02.685Z,65.50
2018-07-21T18:14:27.394Z,64.02
2018-07-21T18:17:52.048Z,65.06
2018-07-21T18:21:16.840Z,63.78
2018-07-21T18:24:41.600Z,63.81
2018-07-21T18:28:06.255Z,64.39
2018-07-21T18:31:30.913Z,62.19
2018-07-21T18:34:55.583Z,63.25
2018-07-21T18:38:20.080Z,62.32
2018-07-21T18:43:09.217Z,62.90
2018-07-21T18:46:33.903Z,62.43
2018-07-21T18:49:58.836Z,62.15
2018-07-21T18:53:24.086Z,62.33
2018-07-21T18:56:48.807Z,61.99
2018-07-21T19:00:13.635Z,61.53
2018-07-21T19:03:38.519Z,61.23
2018-07-21T19:07:03.762Z,61.98
2018-07-21T19:10:28.638Z,62.91
2018-07-21T19:13:52.989Z,61.41
2018-07-21T19:17:17.772Z,62.22
2018-07-21T19:21:48.689Z,62.95
2018-07-21T19:25:18.762Z,63.27
2018-07-21T19:28:43.745Z,62.07
2018-07-21T19:32:13.916Z,63.24
2018-07-21T19:35:39.090Z,63.70
2018-07-21T19:39:04.334Z,63.67
2018-07-21T19:42:29.229Z,62.42
2018-07-21T19:45:54.119Z,63.50
2018-07-21T19:49:19.387Z,63.06
2018-07-21T19:52:44.298Z,62.90
2018-07-21T19:56:09.086Z,63.41
2018-07-21T19:59:33.819Z,64.71
2018-07-21T20:02:58.467Z,63.21
2018-07-21T20:06:23.360Z,63.79
2018-07-21T20:09:48.049Z,64.20
2018-07-21T20:13:12.748Z,65.73
2018-07-21T20:16:37.778Z,67.32
2018-07-21T20:20:02.427Z,66.52
2018-07-21T20:23:27.104Z,64.68
2018-07-21T20:26:51.760Z,66.50
2018-07-21T20:30:16.399Z,65.40
2018-07-21T20:33:41.132Z,65.78
2018-07-21T20:37:05.905Z,64.96
2018-07-21T20:40:30.653Z,65.63
2018-07-21T20:43:54.926Z,65.26
2018-07-21T20:47:19.574Z,65.61
2018-07-21T20:50:44.281Z,65.21
2018-07-21T20:54:08.948Z,65.57
2018-07-21T20:57:33.654Z,67.04
2018-07-21T21:00:58.363Z,63.97
2018-07-21T21:04:23.116Z,66.62
2018-07-21T21:07:47.882Z,67.75
2018-07-21T21:11:12.565Z,67.21
2018-07-21T21:14:37.242Z,66.00
2018-07-21T21:18:01.736Z,66.55
2018-07-21T21:21:26.527Z,65.91
2018-07-21T21:24:51.236Z,67.01
2018-07-21T21:28:16.048Z,68.19
2018-07-21T21:31:40.975Z,65.92
2018-07-21T21:35:05.812Z,66.67
2018-07-21T21:38:30.596Z,68.22
2018-07-21T21:41:55.467Z,69.30
2018-07-21T21:45:20.186Z,70.70
2018-07-21T21:48:51.322Z,70.30
2018-07-21T21:52:17.173Z,71.22
2018-07-21T21:55:43.460Z,71.25
2018-07-21T21:59:08.217Z,72.50
2018-07-21T22:02:33.062Z,73.20
2018-07-21T22:05:58.266Z,71.62
2018-07-21T22:09:22.993Z,69.67
2018-07-21T22:12:47.828Z,70.57
2018-07-21T22:16:12.599Z,71.33
2018-07-21T22:19:37.338Z,68.49
2018-07-21T22:23:02.087Z,71.10
2018-07-21T22:26:27.732Z,71.90
2018-07-21T22:29:52.374Z,72.60
2018-07-21T22:33:17.066Z,72.50
2018-07-21T22:36:41.852Z,71.18
2018-07-21T22:40:06.654Z,72.31
2018-07-21T22:43:31.399Z,74.07
2018-07-21T22:46:56.180Z,73.56
2018-07-21T22:50:20.806Z,72.28
2018-07-21T22:53:45.674Z,71.70
2018-07-21T22:57:10.482Z,73.71
2018-07-21T23:00:35.232Z,73.02
2018-07-21T23:04:00.120Z,74.19
2018-07-21T23:07:34.633Z,73.01
2018-07-21T23:10:59.363Z,72.86
2018-07-21T23:14:25.101Z,72.00
2018-07-21T23:17:49.763Z,70.51
2018-07-21T23:21:14.410Z,72.98
2018-07-21T23:24:39.899Z,74.29
2018-07-21T23:28:04.624Z,74.48
2018-07-21T23:31:29.425Z,75.11
2018-07-21T23:34:54.264Z,75.61
2018-07-21T23:38:19.030Z,75.81
2018-07-21T23:41:43.851Z,76.08
2018-07-21T23:45:08.665Z,75.65
2018-07-21T23:48:33.344Z,76.40
2018-07-21T23:51:57.724Z,76.31
2018-07-21T23:55:22.483Z,76.19
2018-07-21T23:58:47.425Z,76.28
